Market Drayton, United Kingdom
Current Conditions -  °F | °C
As of 7:50 AM on Thursday 29 Jan 2015 (Local Time) from EGOS Reporting Station
Snow Showers Snow Showers  
Wind Chill: -5°   Ceiling: Unl
Heat Index:   Visibility: 4mi
Dew Point:   Wind: 17mph
Humidity: 93%   Direction: 230°SW
Pressure: 29.09"   Gusts: 29mph
Location:  52.91°N, 2.49°W
Report Text: EGOS 290750Z 23015G25KT 7000 2000W SHSN VV/// 01/00 Q0985 RED TEMPO 9999 NSW SCT015 WHT
Loading
Personal Weather Stations






























Interactive Weather Map New forecast layout! Learn more

10-Day Weather Forecast

Advertisements
Track Severe Weather on mobile